Time;durP1;ratioP1;P1;durP2;ratioP2;P2;SDS_P1;SDS_P2;PMS_P1;PMS_P2;Temp;Humidity;BMP_temperature;BMP_pressure;BME280_temperature;BME280_humidity;BME280_pressure;Samples;Min_cycle;Max_cycle;Signal;HPM_P1;HPM_P2
2024/04/08 00:01:48;;;;;;;6.85;3.58;;;;;;;;;;5506622;25;20393;-64
2024/04/08 00:04:13;;;;;;;7.88;4.03;;;;;;;;;;5506810;25;20005;-64
2024/04/08 00:06:38;;;;;;;4.80;3.70;;;;;;;;;;5523774;25;20013;-65
2024/04/08 00:09:04;;;;;;;7.72;4.32;;;;;;;;;;5533343;25;20005;-64
2024/04/08 00:11:29;;;;;;;6.05;4.22;;;;;;;;;;5528356;25;19998;-64
2024/04/08 00:13:55;;;;;;;7.63;3.70;;;;;;;;;;5528042;25;20377;-64
2024/04/08 00:16:20;;;;;;;6.55;4.10;;;;;;;;;;5527671;25;20465;-66
2024/04/08 00:18:46;;;;;;;6.75;4.05;;;;;;;;;;5525042;25;20003;-63
2024/04/08 00:21:11;;;;;;;6.20;3.50;;;;;;;;;;5528019;25;20002;-63
2024/04/08 00:23:37;;;;;;;4.57;3.70;;;;;;;;;;5527875;25;20009;-63
2024/04/08 00:26:05;;;;;;;6.10;3.40;;;;;;;;;;5528538;25;20012;-65
2024/04/08 00:28:33;;;;;;;6.70;3.65;;;;;;;;;;5519317;25;20130;-65
2024/04/08 00:31:08;;;;;;;5.60;3.38;;;;;;;;;;5490999;26;19998;-65
2024/04/08 00:33:34;;;;;;;5.32;3.40;;;;;;;;;;5491816;26;20286;-66
2024/04/08 00:36:00;;;;;;;5.72;3.45;;;;;;;;;;5491263;26;20013;-64
2024/04/08 00:38:25;;;;;;;5.95;3.50;;;;;;;;;;5490802;26;20313;-64
2024/04/08 00:40:51;;;;;;;4.28;3.00;;;;;;;;;;5491086;26;20017;-65
2024/04/08 00:43:16;;;;;;;3.53;2.97;;;;;;;;;;5490188;26;20078;-65
2024/04/08 00:45:43;;;;;;;5.53;3.10;;;;;;;;;;5488875;26;19998;-65
2024/04/08 00:48:09;;;;;;;7.63;3.15;;;;;;;;;;5515318;26;20020;-64
2024/04/08 00:50:35;;;;;;;4.22;2.70;;;;;;;;;;5527647;25;20005;-64
2024/04/08 00:53:01;;;;;;;4.47;2.97;;;;;;;;;;5527917;25;20095;-64
2024/04/08 00:55:27;;;;;;;4.35;2.80;;;;;;;;;;5524130;25;20013;-64
2024/04/08 00:57:55;;;;;;;4.30;2.60;;;;;;;;;;5524407;25;20023;-64
2024/04/08 01:00:20;;;;;;;3.60;3.15;;;;;;;;;;5527576;25;20340;-65
2024/04/08 01:02:46;;;;;;;6.10;3.05;;;;;;;;;;5527038;25;20012;-65
2024/04/08 01:05:13;;;;;;;4.15;2.60;;;;;;;;;;5527793;25;20005;-65
2024/04/08 01:07:41;;;;;;;4.88;2.60;;;;;;;;;;5527144;25;20066;-64
2024/04/08 01:10:06;;;;;;;2.70;2.50;;;;;;;;;;5502160;25;20040;-65
2024/04/08 01:12:32;;;;;;;5.40;2.60;;;;;;;;;;5490620;26;20534;-65
2024/04/08 01:14:57;;;;;;;5.65;2.75;;;;;;;;;;5490804;26;19998;-64
2024/04/08 01:17:23;;;;;;;6.18;2.70;;;;;;;;;;5490359;26;20300;-63
2024/04/08 01:19:48;;;;;;;3.47;2.33;;;;;;;;;;5488885;26;20008;-64
2024/04/08 01:22:14;;;;;;;5.68;2.63;;;;;;;;;;5490057;26;20013;-64
2024/04/08 01:24:39;;;;;;;5.68;2.38;;;;;;;;;;5492732;26;20006;-65
2024/04/08 01:27:05;;;;;;;4.68;2.35;;;;;;;;;;5490299;26;20088;-64
2024/04/08 01:29:30;;;;;;;4.50;2.38;;;;;;;;;;5488432;26;20006;-66
2024/04/08 01:31:55;;;;;;;3.97;2.13;;;;;;;;;;5490439;26;20013;-64
2024/04/08 01:34:21;;;;;;;5.25;2.50;;;;;;;;;;5490476;26;20005;-65
2024/04/08 01:36:47;;;;;;;4.00;2.47;;;;;;;;;;5489889;26;19998;-64
2024/04/08 01:39:12;;;;;;;3.83;2.05;;;;;;;;;;5489935;26;20006;-63
2024/04/08 01:41:38;;;;;;;4.38;2.17;;;;;;;;;;5488694;26;20400;-64
2024/04/08 01:44:03;;;;;;;4.18;2.50;;;;;;;;;;5490283;26;20002;-64
2024/04/08 01:46:29;;;;;;;2.85;2.20;;;;;;;;;;5496022;26;20057;-67
2024/04/08 01:48:54;;;;;;;5.03;2.20;;;;;;;;;;5526486;25;20416;-64
2024/04/08 01:51:19;;;;;;;6.32;2.60;;;;;;;;;;5526577;25;20312;-66
2024/04/08 01:53:45;;;;;;;4.50;2.55;;;;;;;;;;5509834;25;20103;-64
2024/04/08 01:56:10;;;;;;;2.72;2.33;;;;;;;;;;5489893;26;20002;-63
2024/04/08 01:58:37;;;;;;;4.20;2.67;;;;;;;;;;5491101;26;20413;-66
2024/04/08 02:01:02;;;;;;;4.18;2.55;;;;;;;;;;5489591;26;20002;-64
2024/04/08 02:03:27;;;;;;;3.55;2.80;;;;;;;;;;5490025;26;20009;-64
2024/04/08 02:05:53;;;;;;;6.65;3.00;;;;;;;;;;5489659;26;20006;-63
2024/04/08 02:08:18;;;;;;;4.20;3.13;;;;;;;;;;5489790;26;20074;-63
2024/04/08 02:10:44;;;;;;;5.78;3.20;;;;;;;;;;5489616;26;20071;-65
2024/04/08 02:13:09;;;;;;;4.95;3.58;;;;;;;;;;5489532;26;20001;-65
2024/04/08 02:15:35;;;;;;;4.35;3.55;;;;;;;;;;5489506;26;20389;-64
2024/04/08 02:18:00;;;;;;;5.78;3.60;;;;;;;;;;5491607;26;20070;-64
2024/04/08 02:20:26;;;;;;;3.95;3.65;;;;;;;;;;5489076;26;19998;-64
2024/04/08 02:22:52;;;;;;;6.70;4.10;;;;;;;;;;5489488;26;20412;-64
2024/04/08 02:25:17;;;;;;;6.70;3.92;;;;;;;;;;5489107;26;20017;-65
2024/04/08 02:27:43;;;;;;;6.45;4.55;;;;;;;;;;5489303;26;20002;-63
2024/04/08 02:30:09;;;;;;;7.38;4.03;;;;;;;;;;5489536;26;20024;-65
2024/04/08 02:32:35;;;;;;;6.07;4.30;;;;;;;;;;5488404;26;20005;-63
2024/04/08 02:35:01;;;;;;;5.38;4.05;;;;;;;;;;5489544;26;20764;-63
2024/04/08 02:37:26;;;;;;;9.05;4.80;;;;;;;;;;5489392;26;20005;-63
2024/04/08 02:39:52;;;;;;;8.27;4.63;;;;;;;;;;5492522;25;20018;-64
2024/04/08 02:42:17;;;;;;;5.72;4.90;;;;;;;;;;5489055;26;19998;-64
2024/04/08 02:44:42;;;;;;;5.50;4.70;;;;;;;;;;5487272;26;20032;-64
2024/04/08 02:47:08;;;;;;;5.05;4.60;;;;;;;;;;5491045;26;20017;-65
2024/04/08 02:49:33;;;;;;;5.70;5.15;;;;;;;;;;5488862;26;20016;-64
2024/04/08 02:51:59;;;;;;;8.13;5.28;;;;;;;;;;5487221;26;20305;-65
2024/04/08 02:54:24;;;;;;;5.95;5.18;;;;;;;;;;5488954;26;20006;-64
2024/04/08 02:56:49;;;;;;;8.35;5.40;;;;;;;;;;5488315;26;20022;-64
2024/04/08 02:59:15;;;;;;;6.75;5.32;;;;;;;;;;5512454;26;20012;-64
2024/04/08 03:01:41;;;;;;;6.93;5.35;;;;;;;;;;5525910;25;20012;-65
2024/04/08 03:04:06;;;;;;;6.05;4.97;;;;;;;;;;5525553;25;20005;-64
2024/04/08 03:06:32;;;;;;;6.43;5.18;;;;;;;;;;5525088;25;20165;-64
2024/04/08 03:08:57;;;;;;;7.03;5.40;;;;;;;;;;5525826;25;20010;-65
2024/04/08 03:11:23;;;;;;;7.00;5.50;;;;;;;;;;5525121;25;20364;-72
2024/04/08 03:13:48;;;;;;;7.10;5.00;;;;;;;;;;5511734;25;20010;-76
2024/04/08 03:16:13;;;;;;;8.02;5.20;;;;;;;;;;5502460;25;20470;-70
2024/04/08 03:18:39;;;;;;;6.45;4.78;;;;;;;;;;5504804;26;20001;-73
2024/04/08 03:21:04;;;;;;;5.10;4.38;;;;;;;;;;5504174;26;20017;-73
2024/04/08 03:23:30;;;;;;;7.43;5.45;;;;;;;;;;5507396;26;20105;-73
2024/04/08 03:25:59;;;;;;;7.53;4.72;;;;;;;;;;5504226;26;20021;-73
2024/04/08 03:28:25;;;;;;;5.55;4.93;;;;;;;;;;5473306;26;20014;-74
2024/04/08 03:30:50;;;;;;;8.50;4.97;;;;;;;;;;5497909;26;20018;-73
2024/04/08 03:33:19;;;;;;;6.45;4.70;;;;;;;;;;5492284;25;20071;-72
2024/04/08 03:35:44;;;;;;;8.57;4.90;;;;;;;;;;5505875;25;20069;-71
2024/04/08 03:38:10;;;;;;;7.10;4.95;;;;;;;;;;5504939;26;20006;-73
2024/04/08 03:40:35;;;;;;;7.95;4.38;;;;;;;;;;5521072;26;20006;-71
2024/04/08 03:43:01;;;;;;;4.80;4.32;;;;;;;;;;5504361;26;20014;-73
2024/04/08 03:45:27;;;;;;;6.53;4.13;;;;;;;;;;5506823;26;20021;-73
2024/04/08 03:47:52;;;;;;;8.68;4.40;;;;;;;;;;5509819;26;20074;-73
2024/04/08 03:50:18;;;;;;;6.47;4.32;;;;;;;;;;5505457;25;20050;-73
2024/04/08 03:52:45;;;;;;;4.78;3.97;;;;;;;;;;5492163;26;20014;-73
2024/04/08 03:55:11;;;;;;;6.15;4.13;;;;;;;;;;5508683;25;20311;-74
2024/04/08 03:57:36;;;;;;;4.32;3.60;;;;;;;;;;5499226;26;20006;-74
2024/04/08 04:00:03;;;;;;;6.90;4.20;;;;;;;;;;5504577;25;20009;-75
2024/04/08 04:02:30;;;;;;;7.30;3.85;;;;;;;;;;5507142;26;20018;-74
2024/04/08 04:04:55;;;;;;;9.30;3.58;;;;;;;;;;5474275;26;20028;-72
2024/04/08 04:07:20;;;;;;;4.60;3.67;;;;;;;;;;5499230;26;20073;-74
2024/04/08 04:09:46;;;;;;;5.55;3.92;;;;;;;;;;5494895;26;20002;-73
2024/04/08 04:12:11;;;;;;;5.65;3.75;;;;;;;;;;5491420;26;19998;-73
2024/04/08 04:14:37;;;;;;;5.45;3.85;;;;;;;;;;5491339;26;20074;-73
2024/04/08 04:17:02;;;;;;;4.13;3.50;;;;;;;;;;5459048;26;20001;-71
2024/04/08 04:19:28;;;;;;;4.47;3.60;;;;;;;;;;5460645;26;20017;-71
2024/04/08 04:21:53;;;;;;;6.88;3.50;;;;;;;;;;5491180;26;20002;-72
2024/04/08 04:24:19;;;;;;;5.00;3.60;;;;;;;;;;5479497;26;20341;-73
2024/04/08 04:26:44;;;;;;;4.45;3.90;;;;;;;;;;5506438;26;20002;-72
2024/04/08 04:29:10;;;;;;;5.72;3.65;;;;;;;;;;5507111;26;20421;-72
2024/04/08 04:31:42;;;;;;;4.93;3.38;;;;;;;;;;5508925;26;20301;-73
2024/04/08 04:34:08;;;;;;;5.47;3.45;;;;;;;;;;5498428;26;20034;-73
2024/04/08 04:36:33;;;;;;;4.40;3.90;;;;;;;;;;5506311;25;20353;-74
2024/04/08 04:38:59;;;;;;;6.10;4.35;;;;;;;;;;5507838;25;20392;-73
2024/04/08 04:41:24;;;;;;;11.07;3.95;;;;;;;;;;5503817;25;20009;-73
2024/04/08 04:43:50;;;;;;;8.27;3.70;;;;;;;;;;5488253;26;20334;-72
2024/04/08 04:46:15;;;;;;;9.32;3.88;;;;;;;;;;5506426;25;20265;-73
2024/04/08 04:48:40;;;;;;;9.13;4.18;;;;;;;;;;5452754;26;20013;-74
2024/04/08 04:51:06;;;;;;;9.43;4.05;;;;;;;;;;5507344;25;20064;-73
2024/04/08 04:53:31;;;;;;;7.50;4.13;;;;;;;;;;5507602;26;20362;-71
2024/04/08 04:55:56;;;;;;;7.43;3.70;;;;;;;;;;5501740;26;20010;-74
2024/04/08 04:58:22;;;;;;;9.18;4.00;;;;;;;;;;5477550;26;20367;-70
2024/04/08 05:00:48;;;;;;;8.68;3.75;;;;;;;;;;5428427;26;20453;-72
2024/04/08 05:03:14;;;;;;;13.68;4.32;;;;;;;;;;5490842;26;20048;-71
2024/04/08 05:05:39;;;;;;;9.02;3.80;;;;;;;;;;5488844;26;20014;-73
2024/04/08 05:08:05;;;;;;;7.45;3.92;;;;;;;;;;5488311;26;20017;-73
2024/04/08 05:10:31;;;;;;;9.18;4.07;;;;;;;;;;5458458;26;20022;-72
2024/04/08 05:12:56;;;;;;;5.78;4.13;;;;;;;;;;5490677;25;20078;-73
2024/04/08 05:15:21;;;;;;;8.35;3.83;;;;;;;;;;5525818;25;20404;-71
2024/04/08 05:17:47;;;;;;;9.32;3.97;;;;;;;;;;5525116;25;20020;-71
2024/04/08 05:20:12;;;;;;;9.30;4.38;;;;;;;;;;5526902;25;20013;-72
2024/04/08 05:22:44;;;;;;;14.90;4.28;;;;;;;;;;5527263;25;20005;-72
2024/04/08 05:25:09;;;;;;;8.23;4.10;;;;;;;;;;5527560;25;20009;-71
2024/04/08 05:27:35;;;;;;;10.48;3.70;;;;;;;;;;5506139;26;20002;-73
2024/04/08 05:30:00;;;;;;;6.05;3.75;;;;;;;;;;5488018;26;20297;-72
2024/04/08 05:32:25;;;;;;;7.97;3.80;;;;;;;;;;5488615;26;20002;-74
2024/04/08 05:34:51;;;;;;;7.80;3.85;;;;;;;;;;5490088;26;19999;-70
2024/04/08 05:37:16;;;;;;;5.93;4.03;;;;;;;;;;5488243;26;20347;-72
2024/04/08 05:39:42;;;;;;;6.10;4.00;;;;;;;;;;5491544;26;20013;-72
2024/04/08 05:42:07;;;;;;;6.80;3.65;;;;;;;;;;5489741;26;20016;-73
2024/04/08 05:44:33;;;;;;;7.75;3.53;;;;;;;;;;5488276;26;20018;-73
2024/04/08 05:46:58;;;;;;;4.40;3.80;;;;;;;;;;5497729;26;20001;-72
2024/04/08 05:49:24;;;;;;;8.40;3.92;;;;;;;;;;5487545;26;20074;-72
2024/04/08 05:51:49;;;;;;;6.65;3.63;;;;;;;;;;5489935;26;20365;-73
2024/04/08 05:54:14;;;;;;;7.05;3.92;;;;;;;;;;5490170;26;20002;-74
2024/04/08 05:56:40;;;;;;;4.80;3.70;;;;;;;;;;5489301;25;20002;-73
2024/04/08 05:59:05;;;;;;;8.00;3.40;;;;;;;;;;5505650;26;20403;-74
2024/04/08 06:01:32;;;;;;;5.57;3.22;;;;;;;;;;5526141;26;20011;-76
2024/04/08 06:03:57;;;;;;;4.95;3.60;;;;;;;;;;5525685;26;20013;-72
2024/04/08 06:06:23;;;;;;;5.63;3.63;;;;;;;;;;5522765;26;20161;-69
2024/04/08 06:08:54;;;;;;;7.97;3.47;;;;;;;;;;5518651;25;20393;-73
2024/04/08 06:11:19;;;;;;;5.53;3.15;;;;;;;;;;5489136;26;20010;-72
2024/04/08 06:13:45;;;;;;;6.15;3.50;;;;;;;;;;5457274;26;20013;-72
2024/04/08 06:16:10;;;;;;;9.10;3.83;;;;;;;;;;5491647;26;20006;-73
2024/04/08 06:18:36;;;;;;;10.07;3.25;;;;;;;;;;5473264;26;20014;-72
2024/04/08 06:21:01;;;;;;;7.00;3.47;;;;;;;;;;5489077;26;20002;-72
2024/04/08 06:23:26;;;;;;;9.95;3.30;;;;;;;;;;5489557;26;20258;-71
2024/04/08 06:25:59;;;;;;;7.10;3.38;;;;;;;;;;5490723;26;20010;-73
2024/04/08 06:28:24;;;;;;;8.52;3.22;;;;;;;;;;5513603;25;20001;-71
2024/04/08 06:30:49;;;;;;;7.13;3.30;;;;;;;;;;5510575;25;20015;-72
2024/04/08 06:33:15;;;;;;;6.82;3.13;;;;;;;;;;5522437;25;20139;-73
2024/04/08 06:35:44;;;;;;;8.27;3.20;;;;;;;;;;5525534;25;20357;-73
2024/04/08 06:38:10;;;;;;;6.47;3.47;;;;;;;;;;5524236;25;20226;-73
2024/04/08 06:40:35;;;;;;;5.10;2.88;;;;;;;;;;5523401;26;20025;-72
2024/04/08 06:43:01;;;;;;;6.15;2.70;;;;;;;;;;5525554;25;20016;-72
2024/04/08 06:45:26;;;;;;;9.55;2.63;;;;;;;;;;5525193;25;20005;-73
2024/04/08 06:47:52;;;;;;;6.60;2.92;;;;;;;;;;5522447;25;20009;-71
2024/04/08 06:50:17;;;;;;;7.15;2.75;;;;;;;;;;5525829;25;20009;-72
2024/04/08 06:52:43;;;;;;;5.57;2.83;;;;;;;;;;5525684;25;20012;-71
2024/04/08 06:55:09;;;;;;;7.20;2.70;;;;;;;;;;5525187;25;20008;-72
2024/04/08 06:57:35;;;;;;;7.43;2.95;;;;;;;;;;5517070;25;20278;-72
2024/04/08 07:00:00;;;;;;;6.00;3.03;;;;;;;;;;5486894;26;20006;-71
2024/04/08 07:02:26;;;;;;;7.17;2.93;;;;;;;;;;5490964;26;20079;-70
2024/04/08 07:04:51;;;;;;;6.25;2.95;;;;;;;;;;5523325;25;20226;-71
2024/04/08 07:07:17;;;;;;;5.37;2.53;;;;;;;;;;5524424;25;19998;-72
2024/04/08 07:09:42;;;;;;;3.97;2.83;;;;;;;;;;5525196;25;20242;-72
2024/04/08 07:12:07;;;;;;;5.63;2.60;;;;;;;;;;5524945;25;20297;-72
2024/04/08 07:14:33;;;;;;;5.07;3.00;;;;;;;;;;5524518;25;20392;-71
2024/04/08 07:16:58;;;;;;;6.47;2.33;;;;;;;;;;5520165;25;20024;-73
2024/04/08 07:19:24;;;;;;;5.72;3.00;;;;;;;;;;5493099;25;20322;-70
2024/04/08 07:21:49;;;;;;;8.68;3.08;;;;;;;;;;5490370;26;20006;-71
2024/04/08 07:24:15;;;;;;;7.18;3.10;;;;;;;;;;5518145;26;20292;-72
2024/04/08 07:26:41;;;;;;;5.72;3.15;;;;;;;;;;5491643;26;19998;-72
2024/04/08 07:29:06;;;;;;;10.02;3.45;;;;;;;;;;5492311;26;19998;-71
2024/04/08 07:31:31;;;;;;;6.25;3.03;;;;;;;;;;5491825;26;20013;-72
2024/04/08 07:33:57;;;;;;;4.47;2.92;;;;;;;;;;5491552;25;20006;-67
2024/04/08 07:36:22;;;;;;;6.57;2.97;;;;;;;;;;5511126;26;20053;-67
2024/04/08 07:38:48;;;;;;;5.57;2.58;;;;;;;;;;5541522;25;20009;-68
2024/04/08 07:41:13;;;;;;;3.83;2.58;;;;;;;;;;5495105;25;20081;-67
2024/04/08 07:43:39;;;;;;;10.27;2.65;;;;;;;;;;5494267;26;20287;-68
2024/04/08 07:46:07;;;;;;;11.05;3.40;;;;;;;;;;5494387;26;20021;-66
2024/04/08 07:48:32;;;;;;;10.00;3.33;;;;;;;;;;5501819;25;20010;-65
2024/04/08 07:50:58;;;;;;;7.45;3.47;;;;;;;;;;5514336;25;20021;-72
2024/04/08 07:53:23;;;;;;;8.23;3.60;;;;;;;;;;5489539;26;20009;-65
2024/04/08 07:55:48;;;;;;;9.85;3.28;;;;;;;;;;5497053;26;20090;-67
2024/04/08 07:58:14;;;;;;;5.88;3.17;;;;;;;;;;5491164;26;20067;-66
2024/04/08 08:00:39;;;;;;;8.27;2.83;;;;;;;;;;5489251;26;20417;-65
2024/04/08 08:03:05;;;;;;;6.35;3.13;;;;;;;;;;5502435;26;20070;-65
2024/04/08 08:05:31;;;;;;;7.10;2.85;;;;;;;;;;5526012;25;20113;-67
2024/04/08 08:07:57;;;;;;;5.53;3.03;;;;;;;;;;5526027;26;19998;-66
2024/04/08 08:10:22;;;;;;;4.00;2.60;;;;;;;;;;5494299;26;20012;-68
2024/04/08 08:12:47;;;;;;;7.40;3.10;;;;;;;;;;5526706;25;20012;-67
2024/04/08 08:15:14;;;;;;;6.57;5.70;;;;;;;;;;5492438;25;20696;-67
2024/04/08 08:17:39;;;;;;;5.95;3.72;;;;;;;;;;5515431;25;20006;-67
2024/04/08 08:20:05;;;;;;;8.68;3.33;;;;;;;;;;5486333;26;20134;-67
2024/04/08 08:22:30;;;;;;;7.82;3.35;;;;;;;;;;5495026;26;20306;-67
2024/04/08 08:24:56;;;;;;;6.00;3.42;;;;;;;;;;5487077;26;20002;-68
2024/04/08 08:27:21;;;;;;;6.75;3.63;;;;;;;;;;5489258;26;19994;-69
2024/04/08 08:29:48;;;;;;;11.82;3.88;;;;;;;;;;5492973;25;20021;-71
2024/04/08 08:32:14;;;;;;;9.55;3.38;;;;;;;;;;5514292;25;20006;-71
2024/04/08 08:34:39;;;;;;;6.78;3.50;;;;;;;;;;5485126;26;20006;-71
2024/04/08 08:37:05;;;;;;;5.72;3.38;;;;;;;;;;5505405;26;20280;-72
2024/04/08 08:39:34;;;;;;;5.63;3.63;;;;;;;;;;5526560;26;20012;-71
2024/04/08 08:42:00;;;;;;;7.85;3.67;;;;;;;;;;5523892;26;20300;-73
2024/04/08 08:44:28;;;;;;;6.97;4.05;;;;;;;;;;5472936;26;20412;-71
2024/04/08 08:46:53;;;;;;;9.05;4.00;;;;;;;;;;5504786;26;20079;-71
2024/04/08 08:49:20;;;;;;;12.52;4.07;;;;;;;;;;5487192;25;19998;-68
2024/04/08 08:51:46;;;;;;;6.50;3.75;;;;;;;;;;5520183;25;20078;-73
2024/04/08 08:54:11;;;;;;;8.48;3.95;;;;;;;;;;5524342;25;20409;-74
2024/04/08 08:56:37;;;;;;;10.15;4.20;;;;;;;;;;5492706;26;20005;-73
2024/04/08 08:59:03;;;;;;;10.07;4.03;;;;;;;;;;5524712;25;20015;-79
2024/04/08 09:01:32;;;;;;;13.93;4.38;;;;;;;;;;5484340;26;20013;-73
2024/04/08 09:03:59;;;;;;;11.10;4.10;;;;;;;;;;5524963;25;20005;-69
2024/04/08 09:06:24;;;;;;;12.18;4.18;;;;;;;;;;5500784;26;20017;-77
2024/04/08 09:08:50;;;;;;;8.80;4.18;;;;;;;;;;5487195;26;20014;-72
2024/04/08 09:11:16;;;;;;;13.23;4.68;;;;;;;;;;5493187;26;20021;-70
2024/04/08 09:13:41;;;;;;;7.82;3.95;;;;;;;;;;5476116;26;20017;-73
2024/04/08 09:16:08;;;;;;;7.13;3.83;;;;;;;;;;5515770;25;20010;-67
2024/04/08 09:18:34;;;;;;;9.82;3.88;;;;;;;;;;5488169;26;20046;-70
2024/04/08 09:20:59;;;;;;;10.93;3.80;;;;;;;;;;5501487;26;20441;-69
2024/04/08 09:23:25;;;;;;;10.38;4.50;;;;;;;;;;5466724;26;20032;-74
2024/04/08 09:25:50;;;;;;;7.20;3.60;;;;;;;;;;5510234;26;20677;-70
2024/04/08 09:28:16;;;;;;;10.90;4.22;;;;;;;;;;5456207;26;20002;-73
2024/04/08 09:30:42;;;;;;;14.23;4.40;;;;;;;;;;5455522;26;20717;-73
2024/04/08 09:33:11;;;;;;;8.32;4.10;;;;;;;;;;5497758;26;20403;-72
2024/04/08 09:35:38;;;;;;;12.63;4.22;;;;;;;;;;5523509;26;20027;-71
2024/04/08 09:38:04;;;;;;;8.50;4.20;;;;;;;;;;5508730;26;20006;-70
2024/04/08 09:40:30;;;;;;;12.02;4.43;;;;;;;;;;5506062;26;20020;-68
2024/04/08 09:42:56;;;;;;;9.30;3.97;;;;;;;;;;5523562;25;20005;-69
2024/04/08 09:45:21;;;;;;;13.25;3.65;;;;;;;;;;5525054;25;20047;-71
2024/04/08 09:47:47;;;;;;;8.80;3.80;;;;;;;;;;5522764;25;20400;-70
2024/04/08 09:50:12;;;;;;;9.90;4.25;;;;;;;;;;5520857;25;20078;-72
2024/04/08 09:52:42;;;;;;;8.98;4.07;;;;;;;;;;5522480;25;20070;-71
2024/04/08 09:55:08;;;;;;;12.80;4.03;;;;;;;;;;5507049;26;20058;-74
2024/04/08 09:57:37;;;;;;;8.63;4.15;;;;;;;;;;5458479;26;20412;-74
2024/04/08 10:00:04;;;;;;;11.68;4.05;;;;;;;;;;5484977;26;20017;-74
2024/04/08 10:02:32;;;;;;;12.18;4.97;;;;;;;;;;5485734;26;20006;-73
2024/04/08 10:05:02;;;;;;;15.40;4.95;;;;;;;;;;5486572;25;20023;-75
2024/04/08 10:07:29;;;;;;;10.70;4.35;;;;;;;;;;5488334;26;20130;-74
2024/04/08 10:09:55;;;;;;;10.63;4.50;;;;;;;;;;5487056;26;20004;-74
2024/04/08 10:12:28;;;;;;;9.98;3.95;;;;;;;;;;5486218;26;20002;-74
2024/04/08 10:14:54;;;;;;;8.40;4.05;;;;;;;;;;5456320;26;20002;-75
2024/04/08 10:17:19;;;;;;;10.02;3.83;;;;;;;;;;5486772;26;20006;-71
2024/04/08 10:19:44;;;;;;;10.27;3.50;;;;;;;;;;5513687;25;20090;-76
2024/04/08 10:22:10;;;;;;;12.38;3.60;;;;;;;;;;5513426;26;20021;-73
2024/04/08 10:24:36;;;;;;;9.00;3.50;;;;;;;;;;5510700;26;19997;-77
2024/04/08 10:27:02;;;;;;;12.40;3.67;;;;;;;;;;5488235;26;20401;-79
2024/04/08 10:29:28;;;;;;;11.10;3.88;;;;;;;;;;5493527;26;20175;-73
2024/04/08 10:31:53;;;;;;;9.25;3.58;;;;;;;;;;5485291;26;19998;-75
2024/04/08 10:34:23;;;;;;;12.60;3.25;;;;;;;;;;5488311;26;19998;-71
2024/04/08 10:36:49;;;;;;;15.73;4.63;;;;;;;;;;5493777;25;20050;-71
2024/04/08 10:39:16;;;;;;;8.10;3.40;;;;;;;;;;5503369;26;20013;-70
2024/04/08 10:41:41;;;;;;;11.63;3.45;;;;;;;;;;5523881;25;20012;-75
2024/04/08 10:44:08;;;;;;;10.25;3.30;;;;;;;;;;5524422;25;20009;-71
2024/04/08 10:46:34;;;;;;;8.43;3.22;;;;;;;;;;5483835;26;20021;-69
2024/04/08 10:49:04;;;;;;;13.98;3.33;;;;;;;;;;5486409;26;20413;-73
2024/04/08 10:51:29;;;;;;;12.00;3.22;;;;;;;;;;5504669;25;20017;-71
2024/04/08 10:53:55;;;;;;;7.68;3.30;;;;;;;;;;5521481;26;20002;-71
2024/04/08 10:56:20;;;;;;;9.43;2.78;;;;;;;;;;5521694;25;20001;-70
2024/04/08 10:58:46;;;;;;;11.60;2.92;;;;;;;;;;5524334;25;20559;-70
2024/04/08 11:01:12;;;;;;;7.75;2.72;;;;;;;;;;5521124;25;20416;-70
2024/04/08 11:03:37;;;;;;;6.75;3.30;;;;;;;;;;5491696;26;20090;-69
2024/04/08 11:06:03;;;;;;;10.48;3.08;;;;;;;;;;5517793;25;20020;-68
2024/04/08 11:08:28;;;;;;;6.20;2.50;;;;;;;;;;5491303;26;20009;-69
2024/04/08 11:10:56;;;;;;;8.18;2.78;;;;;;;;;;5524127;25;20013;-68
2024/04/08 11:13:21;;;;;;;7.97;3.00;;;;;;;;;;5524238;25;20029;-68
2024/04/08 11:15:47;;;;;;;8.93;2.70;;;;;;;;;;5518310;25;20006;-70
2024/04/08 11:18:12;;;;;;;8.55;2.92;;;;;;;;;;5487454;26;20405;-70
2024/04/08 11:20:38;;;;;;;7.80;2.72;;;;;;;;;;5487722;25;20017;-70
2024/04/08 11:23:04;;;;;;;9.90;3.35;;;;;;;;;;5487717;26;20391;-69
2024/04/08 11:25:29;;;;;;;8.07;2.78;;;;;;;;;;5484610;26;20428;-69
2024/04/08 11:27:55;;;;;;;11.63;2.83;;;;;;;;;;5486337;26;19998;-68
2024/04/08 11:30:20;;;;;;;7.65;2.95;;;;;;;;;;5487280;26;20436;-69
2024/04/08 11:32:46;;;;;;;9.23;2.97;;;;;;;;;;5486460;26;20342;-67
2024/04/08 11:35:11;;;;;;;7.88;2.92;;;;;;;;;;5499701;26;20024;-69
2024/04/08 11:37:36;;;;;;;7.18;2.88;;;;;;;;;;5520167;25;20288;-69
2024/04/08 11:40:05;;;;;;;8.60;3.17;;;;;;;;;;5522289;25;20006;-68
2024/04/08 11:42:31;;;;;;;10.00;3.17;;;;;;;;;;5487038;26;20011;-71
2024/04/08 11:44:57;;;;;;;12.45;3.08;;;;;;;;;;5484856;26;20010;-72
2024/04/08 11:47:23;;;;;;;11.38;3.60;;;;;;;;;;5510651;26;20009;-73
2024/04/08 11:49:48;;;;;;;14.20;3.75;;;;;;;;;;5521429;25;20082;-74
2024/04/08 11:52:14;;;;;;;10.68;3.65;;;;;;;;;;5519447;25;20005;-75
2024/04/08 11:54:43;;;;;;;18.67;3.60;;;;;;;;;;5520764;25;20001;-74
2024/04/08 11:57:09;;;;;;;14.25;3.55;;;;;;;;;;5513891;25;20005;-71
2024/04/08 11:59:34;;;;;;;9.57;3.40;;;;;;;;;;5522304;25;20009;-84
2024/04/08 12:02:00;;;;;;;11.50;3.70;;;;;;;;;;5510961;26;20308;-70
2024/04/08 12:04:26;;;;;;;11.80;3.80;;;;;;;;;;5506828;25;20018;-74
2024/04/08 12:06:51;;;;;;;7.78;3.38;;;;;;;;;;5497125;25;20071;-71
2024/04/08 12:09:17;;;;;;;12.98;4.03;;;;;;;;;;5499953;26;20001;-72
2024/04/08 12:11:44;;;;;;;10.05;3.47;;;;;;;;;;5497933;26;20009;-69
2024/04/08 12:14:09;;;;;;;10.27;3.35;;;;;;;;;;5491770;26;20006;-73
2024/04/08 12:16:34;;;;;;;10.30;3.38;;;;;;;;;;5489136;26;20017;-73
2024/04/08 12:19:00;;;;;;;14.10;4.20;;;;;;;;;;5488079;26;20013;-72
2024/04/08 12:21:26;;;;;;;11.05;4.18;;;;;;;;;;5491552;25;20451;-73
2024/04/08 12:23:53;;;;;;;11.88;3.88;;;;;;;;;;5488290;26;20006;-70
2024/04/08 12:26:19;;;;;;;12.10;3.90;;;;;;;;;;5524621;26;20029;-71
2024/04/08 12:28:44;;;;;;;14.35;3.75;;;;;;;;;;5514490;25;20444;-71
2024/04/08 12:31:10;;;;;;;13.95;3.75;;;;;;;;;;5493534;26;20281;-72
2024/04/08 12:33:35;;;;;;;9.68;3.22;;;;;;;;;;5510466;25;20078;-75
2024/04/08 12:36:00;;;;;;;11.82;3.35;;;;;;;;;;5488076;25;20002;-71
2024/04/08 12:38:26;;;;;;;13.55;3.60;;;;;;;;;;5490346;26;20082;-71
2024/04/08 12:40:51;;;;;;;9.52;3.30;;;;;;;;;;5496226;26;20002;-72
2024/04/08 12:43:17;;;;;;;13.45;3.97;;;;;;;;;;5487430;26;20309;-71
2024/04/08 12:45:42;;;;;;;12.35;3.90;;;;;;;;;;5490751;26;20006;-67
2024/04/08 12:48:08;;;;;;;8.20;3.72;;;;;;;;;;5524396;25;20009;-70
2024/04/08 12:50:35;;;;;;;14.27;4.65;;;;;;;;;;5530480;25;20009;-72
2024/04/08 12:53:00;;;;;;;18.60;3.70;;;;;;;;;;5527818;25;20001;-70
2024/04/08 12:55:26;;;;;;;13.30;4.32;;;;;;;;;;5527572;25;20005;-72
2024/04/08 12:57:51;;;;;;;15.23;4.55;;;;;;;;;;5526480;25;20021;-72
2024/04/08 13:00:17;;;;;;;15.10;4.38;;;;;;;;;;5522635;25;20017;-72
2024/04/08 13:02:42;;;;;;;15.10;4.40;;;;;;;;;;5525535;26;20024;-73
2024/04/08 13:05:08;;;;;;;12.15;3.78;;;;;;;;;;5525273;25;20024;-67
2024/04/08 13:07:33;;;;;;;15.13;4.20;;;;;;;;;;5505025;25;20104;-74
2024/04/08 13:09:58;;;;;;;13.63;4.30;;;;;;;;;;5488168;26;20009;-72
2024/04/08 13:12:25;;;;;;;15.13;3.90;;;;;;;;;;5486878;26;20036;-70
2024/04/08 13:14:51;;;;;;;8.65;3.30;;;;;;;;;;5500905;26;20006;-72
2024/04/08 13:17:16;;;;;;;10.50;3.63;;;;;;;;;;5516437;25;20423;-73
2024/04/08 13:19:41;;;;;;;10.40;3.45;;;;;;;;;;5490914;25;20332;-72
2024/04/08 13:22:07;;;;;;;12.93;3.90;;;;;;;;;;5529894;25;20081;-73
2024/04/08 13:24:33;;;;;;;12.38;4.05;;;;;;;;;;5498308;25;20393;-72
2024/04/08 13:26:58;;;;;;;13.82;4.43;;;;;;;;;;5490137;26;20729;-71
2024/04/08 13:29:23;;;;;;;10.35;4.28;;;;;;;;;;5488566;26;20388;-71
2024/04/08 13:31:49;;;;;;;15.98;4.15;;;;;;;;;;5488266;26;19997;-68
2024/04/08 13:34:14;;;;;;;12.48;3.80;;;;;;;;;;5490657;26;20021;-74
2024/04/08 13:36:39;;;;;;;8.35;3.78;;;;;;;;;;5515980;25;20005;-71
2024/04/08 13:39:05;;;;;;;11.40;4.65;;;;;;;;;;5526759;25;20009;-68
2024/04/08 13:41:30;;;;;;;12.40;4.38;;;;;;;;;;5520084;26;20002;-71
2024/04/08 13:43:56;;;;;;;15.02;4.15;;;;;;;;;;5520192;25;20002;-71
2024/04/08 13:46:21;;;;;;;10.80;4.00;;;;;;;;;;5525242;25;20065;-70
2024/04/08 13:48:47;;;;;;;10.45;3.80;;;;;;;;;;5525678;25;20399;-72
2024/04/08 13:51:13;;;;;;;11.60;4.25;;;;;;;;;;5504280;25;20075;-72
2024/04/08 13:53:38;;;;;;;13.90;4.40;;;;;;;;;;5488448;25;20006;-72
2024/04/08 13:56:04;;;;;;;11.02;4.38;;;;;;;;;;5487103;26;20079;-70
2024/04/08 13:58:30;;;;;;;14.07;4.30;;;;;;;;;;5487456;26;20010;-73
2024/04/08 14:00:56;;;;;;;13.88;4.20;;;;;;;;;;5489086;26;20074;-68
2024/04/08 14:03:25;;;;;;;11.50;3.97;;;;;;;;;;5487855;26;20406;-70
2024/04/08 14:05:50;;;;;;;15.60;4.03;;;;;;;;;;5495456;26;20010;-70
2024/04/08 14:08:16;;;;;;;12.45;4.63;;;;;;;;;;5508561;25;20824;-72
2024/04/08 14:10:41;;;;;;;12.60;4.28;;;;;;;;;;5515834;25;20010;-78
2024/04/08 14:13:06;;;;;;;14.20;4.07;;;;;;;;;;5525492;25;20061;-78
2024/04/08 14:15:32;;;;;;;8.23;3.92;;;;;;;;;;5487678;26;20002;-77
2024/04/08 14:17:58;;;;;;;11.43;3.85;;;;;;;;;;5486383;26;20421;-71
2024/04/08 14:20:23;;;;;;;9.90;3.60;;;;;;;;;;5487911;26;20012;-73
2024/04/08 14:22:48;;;;;;;14.07;4.40;;;;;;;;;;5520789;25;20021;-75
2024/04/08 14:25:14;;;;;;;9.23;3.80;;;;;;;;;;5525608;26;20132;-75
2024/04/08 14:27:39;;;;;;;18.60;3.90;;;;;;;;;;5524049;25;20293;-76
2024/04/08 14:30:05;;;;;;;11.57;3.65;;;;;;;;;;5524539;25;20017;-74